sensor_id;sensor_type;location;lat;lon;timestamp;P1;durP1;ratioP1;P2;durP2;ratioP2
34549;SDS011;66080;52.078;5.626;2023-11-21T00:01:01;21.80;;;12.60;;
34549;SDS011;66080;52.078;5.626;2023-11-21T00:03:28;22.73;;;13.05;;
34549;SDS011;66080;52.078;5.626;2023-11-21T00:05:54;20.80;;;12.45;;
34549;SDS011;66080;52.078;5.626;2023-11-21T00:08:20;21.70;;;13.00;;
34549;SDS011;66080;52.078;5.626;2023-11-21T00:10:46;26.80;;;11.68;;
34549;SDS011;66080;52.078;5.626;2023-11-21T00:13:13;19.10;;;11.80;;
34549;SDS011;66080;52.078;5.626;2023-11-21T00:15:39;25.65;;;12.90;;
34549;SDS011;66080;52.078;5.626;2023-11-21T00:18:05;24.13;;;12.40;;
34549;SDS011;66080;52.078;5.626;2023-11-21T00:20:31;20.05;;;12.32;;
34549;SDS011;66080;52.078;5.626;2023-11-21T00:22:57;23.90;;;12.20;;
34549;SDS011;66080;52.078;5.626;2023-11-21T00:25:24;21.60;;;11.27;;
34549;SDS011;66080;52.078;5.626;2023-11-21T00:27:50;15.40;;;10.88;;
34549;SDS011;66080;52.078;5.626;2023-11-21T00:30:16;18.70;;;10.10;;
34549;SDS011;66080;52.078;5.626;2023-11-21T00:32:42;22.30;;;10.85;;
34549;SDS011;66080;52.078;5.626;2023-11-21T00:35:08;21.98;;;11.27;;
34549;SDS011;66080;52.078;5.626;2023-11-21T00:37:35;21.08;;;10.88;;
34549;SDS011;66080;52.078;5.626;2023-11-21T00:40:01;17.88;;;10.60;;
34549;SDS011;66080;52.078;5.626;2023-11-21T00:42:30;19.10;;;9.70;;
34549;SDS011;66080;52.078;5.626;2023-11-21T00:44:58;26.55;;;11.23;;
34549;SDS011;66080;52.078;5.626;2023-11-21T00:47:24;28.00;;;11.75;;
34549;SDS011;66080;52.078;5.626;2023-11-21T00:49:50;23.33;;;12.07;;
34549;SDS011;66080;52.078;5.626;2023-11-21T00:52:16;21.58;;;11.50;;
34549;SDS011;66080;52.078;5.626;2023-11-21T00:54:42;29.70;;;10.98;;
34549;SDS011;66080;52.078;5.626;2023-11-21T00:57:09;31.05;;;12.55;;
34549;SDS011;66080;52.078;5.626;2023-11-21T00:59:37;30.58;;;12.38;;
34549;SDS011;66080;52.078;5.626;2023-11-21T01:02:03;28.20;;;13.75;;
34549;SDS011;66080;52.078;5.626;2023-11-21T01:04:30;27.15;;;13.63;;
34549;SDS011;66080;52.078;5.626;2023-11-21T01:06:57;29.02;;;13.68;;
34549;SDS011;66080;52.078;5.626;2023-11-21T01:09:23;28.83;;;14.27;;
34549;SDS011;66080;52.078;5.626;2023-11-21T01:11:49;30.80;;;14.68;;
34549;SDS011;66080;52.078;5.626;2023-11-21T01:14:16;27.67;;;15.43;;
34549;SDS011;66080;52.078;5.626;2023-11-21T01:16:43;37.85;;;16.30;;
34549;SDS011;66080;52.078;5.626;2023-11-21T01:19:09;37.40;;;16.92;;
34549;SDS011;66080;52.078;5.626;2023-11-21T01:21:34;40.78;;;15.65;;
34549;SDS011;66080;52.078;5.626;2023-11-21T01:24:00;35.90;;;14.73;;
34549;SDS011;66080;52.078;5.626;2023-11-21T01:26:27;29.23;;;14.02;;
34549;SDS011;66080;52.078;5.626;2023-11-21T01:28:53;29.63;;;14.77;;
34549;SDS011;66080;52.078;5.626;2023-11-21T01:31:19;29.02;;;14.10;;
34549;SDS011;66080;52.078;5.626;2023-11-21T01:33:45;26.27;;;13.38;;
34549;SDS011;66080;52.078;5.626;2023-11-21T01:36:11;24.80;;;14.18;;
34549;SDS011;66080;52.078;5.626;2023-11-21T01:38:37;64.70;;;17.35;;
34549;SDS011;66080;52.078;5.626;2023-11-21T01:41:04;22.30;;;13.73;;
34549;SDS011;66080;52.078;5.626;2023-11-21T01:43:31;21.52;;;12.63;;
34549;SDS011;66080;52.078;5.626;2023-11-21T01:45:57;20.15;;;12.27;;
34549;SDS011;66080;52.078;5.626;2023-11-21T01:48:24;26.23;;;14.45;;
34549;SDS011;66080;52.078;5.626;2023-11-21T01:50:50;29.67;;;15.60;;
34549;SDS011;66080;52.078;5.626;2023-11-21T01:53:17;23.25;;;14.00;;
34549;SDS011;66080;52.078;5.626;2023-11-21T01:55:43;23.52;;;13.57;;
34549;SDS011;66080;52.078;5.626;2023-11-21T01:58:10;23.98;;;14.45;;
34549;SDS011;66080;52.078;5.626;2023-11-21T02:00:41;26.05;;;13.10;;
34549;SDS011;66080;52.078;5.626;2023-11-21T02:03:08;26.52;;;12.98;;
34549;SDS011;66080;52.078;5.626;2023-11-21T02:05:35;23.67;;;12.23;;
34549;SDS011;66080;52.078;5.626;2023-11-21T02:08:01;27.50;;;12.25;;
34549;SDS011;66080;52.078;5.626;2023-11-21T02:10:28;26.17;;;13.27;;
34549;SDS011;66080;52.078;5.626;2023-11-21T02:12:55;29.38;;;14.77;;
34549;SDS011;66080;52.078;5.626;2023-11-21T02:15:23;26.27;;;14.32;;
34549;SDS011;66080;52.078;5.626;2023-11-21T02:17:53;25.48;;;12.98;;
34549;SDS011;66080;52.078;5.626;2023-11-21T02:20:20;29.25;;;16.00;;
34549;SDS011;66080;52.078;5.626;2023-11-21T02:22:48;21.40;;;13.20;;
34549;SDS011;66080;52.078;5.626;2023-11-21T02:25:14;23.48;;;12.35;;
34549;SDS011;66080;52.078;5.626;2023-11-21T02:27:43;26.83;;;14.23;;
34549;SDS011;66080;52.078;5.626;2023-11-21T02:30:13;25.63;;;13.00;;
34549;SDS011;66080;52.078;5.626;2023-11-21T02:32:39;31.35;;;13.90;;
34549;SDS011;66080;52.078;5.626;2023-11-21T02:35:07;26.27;;;13.85;;
34549;SDS011;66080;52.078;5.626;2023-11-21T02:37:34;23.75;;;12.93;;
34549;SDS011;66080;52.078;5.626;2023-11-21T02:40:00;16.42;;;10.88;;
34549;SDS011;66080;52.078;5.626;2023-11-21T02:42:29;22.02;;;12.85;;
34549;SDS011;66080;52.078;5.626;2023-11-21T02:44:55;20.05;;;11.50;;
34549;SDS011;66080;52.078;5.626;2023-11-21T02:47:22;24.40;;;14.13;;
34549;SDS011;66080;52.078;5.626;2023-11-21T02:49:48;24.40;;;12.73;;
34549;SDS011;66080;52.078;5.626;2023-11-21T02:52:14;22.42;;;12.63;;
34549;SDS011;66080;52.078;5.626;2023-11-21T02:54:40;28.45;;;13.32;;
34549;SDS011;66080;52.078;5.626;2023-11-21T02:57:06;32.00;;;14.30;;
34549;SDS011;66080;52.078;5.626;2023-11-21T02:59:32;34.90;;;14.95;;
34549;SDS011;66080;52.078;5.626;2023-11-21T03:01:58;26.63;;;13.50;;
34549;SDS011;66080;52.078;5.626;2023-11-21T03:04:24;23.55;;;12.68;;
34549;SDS011;66080;52.078;5.626;2023-11-21T03:06:51;21.15;;;13.50;;
34549;SDS011;66080;52.078;5.626;2023-11-21T03:09:17;23.25;;;12.68;;
34549;SDS011;66080;52.078;5.626;2023-11-21T03:11:43;23.60;;;12.93;;
34549;SDS011;66080;52.078;5.626;2023-11-21T03:14:09;22.40;;;13.90;;
34549;SDS011;66080;52.078;5.626;2023-11-21T03:16:35;26.27;;;14.25;;
34549;SDS011;66080;52.078;5.626;2023-11-21T03:19:03;26.35;;;13.65;;
34549;SDS011;66080;52.078;5.626;2023-11-21T03:21:30;24.17;;;13.63;;
34549;SDS011;66080;52.078;5.626;2023-11-21T03:23:56;18.85;;;12.00;;
34549;SDS011;66080;52.078;5.626;2023-11-21T03:26:22;24.25;;;13.40;;
34549;SDS011;66080;52.078;5.626;2023-11-21T03:28:48;25.40;;;13.63;;
34549;SDS011;66080;52.078;5.626;2023-11-21T03:31:14;21.67;;;13.77;;
34549;SDS011;66080;52.078;5.626;2023-11-21T03:33:42;31.38;;;16.40;;
34549;SDS011;66080;52.078;5.626;2023-11-21T03:36:08;30.48;;;14.98;;
34549;SDS011;66080;52.078;5.626;2023-11-21T03:38:34;27.75;;;13.60;;
34549;SDS011;66080;52.078;5.626;2023-11-21T03:41:00;29.85;;;13.82;;
34549;SDS011;66080;52.078;5.626;2023-11-21T03:43:26;36.10;;;15.85;;
34549;SDS011;66080;52.078;5.626;2023-11-21T03:45:52;24.17;;;14.88;;
34549;SDS011;66080;52.078;5.626;2023-11-21T03:48:18;30.40;;;15.95;;
34549;SDS011;66080;52.078;5.626;2023-11-21T03:50:44;33.70;;;15.05;;
34549;SDS011;66080;52.078;5.626;2023-11-21T03:53:10;25.15;;;14.32;;
34549;SDS011;66080;52.078;5.626;2023-11-21T03:55:36;32.85;;;14.68;;
34549;SDS011;66080;52.078;5.626;2023-11-21T03:58:02;30.52;;;15.07;;
34549;SDS011;66080;52.078;5.626;2023-11-21T04:00:28;26.10;;;14.48;;
34549;SDS011;66080;52.078;5.626;2023-11-21T04:02:53;26.80;;;14.55;;
34549;SDS011;66080;52.078;5.626;2023-11-21T04:05:20;28.23;;;13.73;;
34549;SDS011;66080;52.078;5.626;2023-11-21T04:07:47;27.42;;;13.73;;
34549;SDS011;66080;52.078;5.626;2023-11-21T04:10:13;28.08;;;14.07;;
34549;SDS011;66080;52.078;5.626;2023-11-21T04:12:40;25.92;;;14.43;;
34549;SDS011;66080;52.078;5.626;2023-11-21T04:15:07;25.33;;;13.93;;
34549;SDS011;66080;52.078;5.626;2023-11-21T04:17:36;28.35;;;12.82;;
34549;SDS011;66080;52.078;5.626;2023-11-21T04:20:02;22.30;;;12.93;;
34549;SDS011;66080;52.078;5.626;2023-11-21T04:22:33;31.83;;;14.50;;
34549;SDS011;66080;52.078;5.626;2023-11-21T04:24:59;20.40;;;12.70;;
34549;SDS011;66080;52.078;5.626;2023-11-21T04:27:25;26.33;;;14.07;;
34549;SDS011;66080;52.078;5.626;2023-11-21T04:29:51;24.17;;;11.55;;
34549;SDS011;66080;52.078;5.626;2023-11-21T04:32:16;26.20;;;12.82;;
34549;SDS011;66080;52.078;5.626;2023-11-21T04:34:42;23.13;;;12.18;;
34549;SDS011;66080;52.078;5.626;2023-11-21T04:37:08;26.92;;;12.90;;
34549;SDS011;66080;52.078;5.626;2023-11-21T04:39:35;26.13;;;12.95;;
34549;SDS011;66080;52.078;5.626;2023-11-21T04:42:01;28.48;;;12.88;;
34549;SDS011;66080;52.078;5.626;2023-11-21T04:44:27;34.25;;;13.23;;
34549;SDS011;66080;52.078;5.626;2023-11-21T04:46:53;19.95;;;12.15;;
34549;SDS011;66080;52.078;5.626;2023-11-21T04:49:19;23.00;;;12.55;;
34549;SDS011;66080;52.078;5.626;2023-11-21T04:51:45;37.42;;;12.88;;
34549;SDS011;66080;52.078;5.626;2023-11-21T04:54:11;31.42;;;12.60;;
34549;SDS011;66080;52.078;5.626;2023-11-21T04:56:37;23.75;;;13.27;;
34549;SDS011;66080;52.078;5.626;2023-11-21T04:59:03;30.85;;;13.18;;
34549;SDS011;66080;52.078;5.626;2023-11-21T05:01:29;34.88;;;15.38;;
34549;SDS011;66080;52.078;5.626;2023-11-21T05:03:55;30.02;;;13.98;;
34549;SDS011;66080;52.078;5.626;2023-11-21T05:06:22;28.40;;;13.55;;
34549;SDS011;66080;52.078;5.626;2023-11-21T05:08:48;22.85;;;12.50;;
34549;SDS011;66080;52.078;5.626;2023-11-21T05:11:23;27.27;;;12.80;;
34549;SDS011;66080;52.078;5.626;2023-11-21T05:13:49;33.63;;;15.13;;
34549;SDS011;66080;52.078;5.626;2023-11-21T05:16:15;28.42;;;14.05;;
34549;SDS011;66080;52.078;5.626;2023-11-21T05:18:41;22.90;;;12.50;;
34549;SDS011;66080;52.078;5.626;2023-11-21T05:21:07;26.83;;;13.18;;
34549;SDS011;66080;52.078;5.626;2023-11-21T05:23:34;21.25;;;12.65;;
34549;SDS011;66080;52.078;5.626;2023-11-21T05:26:00;24.90;;;12.93;;
34549;SDS011;66080;52.078;5.626;2023-11-21T05:28:26;23.02;;;12.20;;
34549;SDS011;66080;52.078;5.626;2023-11-21T05:30:52;23.83;;;12.45;;
34549;SDS011;66080;52.078;5.626;2023-11-21T05:33:18;22.10;;;13.57;;
34549;SDS011;66080;52.078;5.626;2023-11-21T05:35:44;22.02;;;13.30;;
34549;SDS011;66080;52.078;5.626;2023-11-21T05:38:10;28.25;;;12.73;;
34549;SDS011;66080;52.078;5.626;2023-11-21T05:40:36;32.50;;;13.50;;
34549;SDS011;66080;52.078;5.626;2023-11-21T05:43:02;26.65;;;12.48;;
34549;SDS011;66080;52.078;5.626;2023-11-21T05:45:30;23.63;;;11.77;;
34549;SDS011;66080;52.078;5.626;2023-11-21T05:47:57;30.45;;;13.35;;
34549;SDS011;66080;52.078;5.626;2023-11-21T05:50:23;22.85;;;12.57;;
34549;SDS011;66080;52.078;5.626;2023-11-21T05:52:49;29.65;;;13.68;;
34549;SDS011;66080;52.078;5.626;2023-11-21T05:55:15;26.48;;;13.73;;
34549;SDS011;66080;52.078;5.626;2023-11-21T05:57:41;38.35;;;15.95;;
34549;SDS011;66080;52.078;5.626;2023-11-21T06:00:11;35.60;;;15.13;;
34549;SDS011;66080;52.078;5.626;2023-11-21T06:02:45;24.73;;;14.20;;
34549;SDS011;66080;52.078;5.626;2023-11-21T06:05:12;27.80;;;13.23;;
34549;SDS011;66080;52.078;5.626;2023-11-21T06:07:38;24.10;;;13.18;;
34549;SDS011;66080;52.078;5.626;2023-11-21T06:10:05;32.15;;;12.98;;
34549;SDS011;66080;52.078;5.626;2023-11-21T06:12:34;28.80;;;13.63;;
34549;SDS011;66080;52.078;5.626;2023-11-21T06:15:01;28.08;;;13.68;;
34549;SDS011;66080;52.078;5.626;2023-11-21T06:17:30;35.88;;;14.13;;
34549;SDS011;66080;52.078;5.626;2023-11-21T06:19:56;35.00;;;13.75;;
34549;SDS011;66080;52.078;5.626;2023-11-21T06:22:21;24.55;;;14.43;;
34549;SDS011;66080;52.078;5.626;2023-11-21T06:24:47;36.40;;;13.90;;
34549;SDS011;66080;52.078;5.626;2023-11-21T06:27:13;29.58;;;14.98;;
34549;SDS011;66080;52.078;5.626;2023-11-21T06:29:40;35.80;;;15.25;;
34549;SDS011;66080;52.078;5.626;2023-11-21T06:32:07;38.70;;;15.70;;
34549;SDS011;66080;52.078;5.626;2023-11-21T06:34:33;32.30;;;14.90;;
34549;SDS011;66080;52.078;5.626;2023-11-21T06:36:59;33.97;;;13.45;;
34549;SDS011;66080;52.078;5.626;2023-11-21T06:39:25;37.95;;;14.00;;
34549;SDS011;66080;52.078;5.626;2023-11-21T06:41:52;31.02;;;13.35;;
34549;SDS011;66080;52.078;5.626;2023-11-21T06:44:19;33.25;;;14.07;;
34549;SDS011;66080;52.078;5.626;2023-11-21T06:46:45;38.53;;;14.18;;
34549;SDS011;66080;52.078;5.626;2023-11-21T06:49:11;25.42;;;14.05;;
34549;SDS011;66080;52.078;5.626;2023-11-21T06:51:37;24.13;;;13.63;;
34549;SDS011;66080;52.078;5.626;2023-11-21T06:54:03;35.70;;;15.80;;
34549;SDS011;66080;52.078;5.626;2023-11-21T06:56:29;22.95;;;13.48;;
34549;SDS011;66080;52.078;5.626;2023-11-21T06:58:55;24.70;;;13.57;;
34549;SDS011;66080;52.078;5.626;2023-11-21T07:01:21;33.95;;;15.43;;
34549;SDS011;66080;52.078;5.626;2023-11-21T07:03:47;27.67;;;13.18;;
34549;SDS011;66080;52.078;5.626;2023-11-21T07:06:13;25.58;;;12.52;;
34549;SDS011;66080;52.078;5.626;2023-11-21T07:08:39;26.42;;;13.80;;
34549;SDS011;66080;52.078;5.626;2023-11-21T07:11:05;27.80;;;14.13;;
34549;SDS011;66080;52.078;5.626;2023-11-21T07:13:32;30.63;;;13.75;;
34549;SDS011;66080;52.078;5.626;2023-11-21T07:15:58;26.80;;;14.50;;
34549;SDS011;66080;52.078;5.626;2023-11-21T07:18:24;27.20;;;15.38;;
34549;SDS011;66080;52.078;5.626;2023-11-21T07:20:50;31.70;;;13.80;;
34549;SDS011;66080;52.078;5.626;2023-11-21T07:23:17;29.33;;;13.80;;
34549;SDS011;66080;52.078;5.626;2023-11-21T07:25:43;26.08;;;13.52;;
34549;SDS011;66080;52.078;5.626;2023-11-21T07:28:09;25.67;;;13.95;;
34549;SDS011;66080;52.078;5.626;2023-11-21T07:30:35;23.42;;;13.57;;
34549;SDS011;66080;52.078;5.626;2023-11-21T07:33:01;28.27;;;14.30;;
34549;SDS011;66080;52.078;5.626;2023-11-21T07:35:27;32.28;;;14.38;;
34549;SDS011;66080;52.078;5.626;2023-11-21T07:37:53;37.08;;;13.55;;
34549;SDS011;66080;52.078;5.626;2023-11-21T07:40:19;32.50;;;13.88;;
34549;SDS011;66080;52.078;5.626;2023-11-21T07:42:45;27.20;;;12.40;;
34549;SDS011;66080;52.078;5.626;2023-11-21T07:45:11;21.98;;;12.40;;
34549;SDS011;66080;52.078;5.626;2023-11-21T07:47:37;27.27;;;11.95;;
34549;SDS011;66080;52.078;5.626;2023-11-21T07:50:04;20.48;;;12.10;;
34549;SDS011;66080;52.078;5.626;2023-11-21T07:52:32;20.67;;;12.48;;
34549;SDS011;66080;52.078;5.626;2023-11-21T07:54:58;22.77;;;12.43;;
34549;SDS011;66080;52.078;5.626;2023-11-21T07:57:24;18.23;;;11.65;;
34549;SDS011;66080;52.078;5.626;2023-11-21T07:59:51;23.77;;;13.50;;
34549;SDS011;66080;52.078;5.626;2023-11-21T08:02:18;20.92;;;12.23;;
34549;SDS011;66080;52.078;5.626;2023-11-21T08:04:44;32.08;;;12.65;;
34549;SDS011;66080;52.078;5.626;2023-11-21T08:07:10;19.27;;;12.60;;
34549;SDS011;66080;52.078;5.626;2023-11-21T08:09:36;21.25;;;11.98;;
34549;SDS011;66080;52.078;5.626;2023-11-21T08:12:02;24.58;;;13.02;;
34549;SDS011;66080;52.078;5.626;2023-11-21T08:14:29;25.23;;;12.35;;
34549;SDS011;66080;52.078;5.626;2023-11-21T08:16:55;20.67;;;12.82;;
34549;SDS011;66080;52.078;5.626;2023-11-21T08:19:23;24.95;;;11.95;;
34549;SDS011;66080;52.078;5.626;2023-11-21T08:21:49;28.20;;;12.50;;
34549;SDS011;66080;52.078;5.626;2023-11-21T08:24:15;29.67;;;13.68;;
34549;SDS011;66080;52.078;5.626;2023-11-21T08:26:41;22.67;;;13.82;;
34549;SDS011;66080;52.078;5.626;2023-11-21T08:29:08;25.52;;;13.50;;
34549;SDS011;66080;52.078;5.626;2023-11-21T08:31:34;25.80;;;14.52;;
34549;SDS011;66080;52.078;5.626;2023-11-21T08:34:00;24.42;;;13.25;;
34549;SDS011;66080;52.078;5.626;2023-11-21T08:36:27;24.05;;;11.95;;
34549;SDS011;66080;52.078;5.626;2023-11-21T08:38:53;24.33;;;14.25;;
34549;SDS011;66080;52.078;5.626;2023-11-21T08:41:19;24.90;;;13.85;;
34549;SDS011;66080;52.078;5.626;2023-11-21T08:43:49;25.20;;;13.70;;
34549;SDS011;66080;52.078;5.626;2023-11-21T08:46:15;21.55;;;13.05;;
34549;SDS011;66080;52.078;5.626;2023-11-21T08:48:44;23.77;;;12.45;;
34549;SDS011;66080;52.078;5.626;2023-11-21T08:51:11;26.25;;;14.50;;
34549;SDS011;66080;52.078;5.626;2023-11-21T08:53:37;25.70;;;14.40;;
34549;SDS011;66080;52.078;5.626;2023-11-21T08:56:03;25.88;;;14.82;;
34549;SDS011;66080;52.078;5.626;2023-11-21T08:58:30;23.17;;;12.52;;
34549;SDS011;66080;52.078;5.626;2023-11-21T09:00:57;25.83;;;12.55;;
34549;SDS011;66080;52.078;5.626;2023-11-21T09:03:23;32.08;;;13.27;;
34549;SDS011;66080;52.078;5.626;2023-11-21T09:05:50;22.23;;;12.95;;
34549;SDS011;66080;52.078;5.626;2023-11-21T09:08:16;30.75;;;12.63;;
34549;SDS011;66080;52.078;5.626;2023-11-21T09:10:42;27.30;;;12.65;;
34549;SDS011;66080;52.078;5.626;2023-11-21T09:13:12;19.27;;;12.25;;
34549;SDS011;66080;52.078;5.626;2023-11-21T09:15:38;25.15;;;14.43;;
34549;SDS011;66080;52.078;5.626;2023-11-21T09:18:04;26.00;;;14.05;;
34549;SDS011;66080;52.078;5.626;2023-11-21T09:20:30;29.02;;;14.10;;
34549;SDS011;66080;52.078;5.626;2023-11-21T09:22:56;28.73;;;15.63;;
34549;SDS011;66080;52.078;5.626;2023-11-21T09:25:22;28.38;;;14.13;;
34549;SDS011;66080;52.078;5.626;2023-11-21T09:27:48;28.58;;;16.30;;
34549;SDS011;66080;52.078;5.626;2023-11-21T09:30:14;31.40;;;15.00;;
34549;SDS011;66080;52.078;5.626;2023-11-21T09:32:41;28.40;;;15.15;;
34549;SDS011;66080;52.078;5.626;2023-11-21T09:35:10;35.92;;;15.50;;
34549;SDS011;66080;52.078;5.626;2023-11-21T09:37:38;24.92;;;14.15;;
34549;SDS011;66080;52.078;5.626;2023-11-21T09:40:05;24.98;;;15.00;;
34549;SDS011;66080;52.078;5.626;2023-11-21T09:42:40;33.92;;;16.38;;
34549;SDS011;66080;52.078;5.626;2023-11-21T09:47:39;25.50;;;14.73;;
34549;SDS011;66080;52.078;5.626;2023-11-21T09:50:06;32.50;;;17.08;;
34549;SDS011;66080;52.078;5.626;2023-11-21T09:53:11;24.05;;;13.52;;
34549;SDS011;66080;52.078;5.626;2023-11-21T09:55:29;22.77;;;13.38;;
34549;SDS011;66080;52.078;5.626;2023-11-21T09:57:56;21.77;;;12.70;;
34549;SDS011;66080;52.078;5.626;2023-11-21T10:00:23;19.75;;;12.50;;
34549;SDS011;66080;52.078;5.626;2023-11-21T10:02:49;22.55;;;12.45;;
34549;SDS011;66080;52.078;5.626;2023-11-21T10:05:15;23.88;;;13.30;;
34549;SDS011;66080;52.078;5.626;2023-11-21T10:07:45;21.48;;;12.73;;
34549;SDS011;66080;52.078;5.626;2023-11-21T10:10:11;25.88;;;13.07;;
34549;SDS011;66080;52.078;5.626;2023-11-21T10:12:38;22.83;;;12.55;;
34549;SDS011;66080;52.078;5.626;2023-11-21T10:15:07;20.45;;;13.25;;
34549;SDS011;66080;52.078;5.626;2023-11-21T10:17:35;23.10;;;13.05;;
34549;SDS011;66080;52.078;5.626;2023-11-21T10:20:08;20.73;;;12.35;;
34549;SDS011;66080;52.078;5.626;2023-11-21T10:22:37;19.95;;;12.65;;
34549;SDS011;66080;52.078;5.626;2023-11-21T10:25:06;22.35;;;12.30;;
34549;SDS011;66080;52.078;5.626;2023-11-21T10:27:33;16.92;;;10.82;;
34549;SDS011;66080;52.078;5.626;2023-11-21T10:30:00;18.08;;;10.75;;
34549;SDS011;66080;52.078;5.626;2023-11-21T10:32:29;21.67;;;10.75;;
34549;SDS011;66080;52.078;5.626;2023-11-21T10:34:57;20.45;;;11.57;;
34549;SDS011;66080;52.078;5.626;2023-11-21T10:37:25;19.90;;;11.48;;
34549;SDS011;66080;52.078;5.626;2023-11-21T10:39:58;18.65;;;11.25;;
34549;SDS011;66080;52.078;5.626;2023-11-21T10:42:24;19.75;;;10.75;;
34549;SDS011;66080;52.078;5.626;2023-11-21T10:44:52;19.20;;;9.48;;
34549;SDS011;66080;52.078;5.626;2023-11-21T10:47:18;18.88;;;11.45;;
34549;SDS011;66080;52.078;5.626;2023-11-21T10:49:45;18.73;;;10.85;;
34549;SDS011;66080;52.078;5.626;2023-11-21T10:52:13;17.48;;;11.20;;
34549;SDS011;66080;52.078;5.626;2023-11-21T10:54:42;14.70;;;9.95;;
34549;SDS011;66080;52.078;5.626;2023-11-21T10:57:09;12.85;;;9.02;;
34549;SDS011;66080;52.078;5.626;2023-11-21T10:59:36;18.10;;;9.65;;
34549;SDS011;66080;52.078;5.626;2023-11-21T11:02:06;16.25;;;9.10;;
34549;SDS011;66080;52.078;5.626;2023-11-21T11:04:36;15.95;;;10.60;;
34549;SDS011;66080;52.078;5.626;2023-11-21T11:07:03;18.27;;;11.18;;
34549;SDS011;66080;52.078;5.626;2023-11-21T11:09:31;16.40;;;9.63;;
34549;SDS011;66080;52.078;5.626;2023-11-21T11:12:01;18.17;;;8.35;;
34549;SDS011;66080;52.078;5.626;2023-11-21T11:14:27;13.07;;;8.30;;
34549;SDS011;66080;52.078;5.626;2023-11-21T11:16:54;16.58;;;8.18;;
34549;SDS011;66080;52.078;5.626;2023-11-21T11:19:21;18.35;;;9.70;;
34549;SDS011;66080;52.078;5.626;2023-11-21T11:32:43;15.13;;;9.00;;
34549;SDS011;66080;52.078;5.626;2023-11-21T11:35:22;13.13;;;7.10;;
34549;SDS011;66080;52.078;5.626;2023-11-21T11:37:50;12.63;;;8.10;;
34549;SDS011;66080;52.078;5.626;2023-11-21T11:40:16;13.40;;;7.00;;
34549;SDS011;66080;52.078;5.626;2023-11-21T11:42:55;13.00;;;6.80;;
34549;SDS011;66080;52.078;5.626;2023-11-21T11:45:22;12.68;;;6.80;;
34549;SDS011;66080;52.078;5.626;2023-11-21T11:50:19;11.57;;;7.60;;
34549;SDS011;66080;52.078;5.626;2023-11-21T11:52:46;10.85;;;7.32;;
34549;SDS011;66080;52.078;5.626;2023-11-21T11:55:13;12.90;;;7.47;;
34549;SDS011;66080;52.078;5.626;2023-11-21T11:57:40;10.85;;;6.78;;
34549;SDS011;66080;52.078;5.626;2023-11-21T12:00:10;16.83;;;8.18;;
34549;SDS011;66080;52.078;5.626;2023-11-21T12:02:37;13.02;;;8.65;;
34549;SDS011;66080;52.078;5.626;2023-11-21T12:05:11;15.90;;;7.95;;
34549;SDS011;66080;52.078;5.626;2023-11-21T12:07:51;12.50;;;7.60;;
34549;SDS011;66080;52.078;5.626;2023-11-21T12:10:22;14.98;;;7.68;;
34549;SDS011;66080;52.078;5.626;2023-11-21T12:12:50;13.13;;;7.07;;
34549;SDS011;66080;52.078;5.626;2023-11-21T12:15:17;13.25;;;7.13;;
34549;SDS011;66080;52.078;5.626;2023-11-21T12:17:44;12.90;;;7.43;;
34549;SDS011;66080;52.078;5.626;2023-11-21T12:20:11;11.23;;;7.80;;
34549;SDS011;66080;52.078;5.626;2023-11-21T12:22:41;11.75;;;7.63;;
34549;SDS011;66080;52.078;5.626;2023-11-21T12:25:08;13.20;;;6.78;;
34549;SDS011;66080;52.078;5.626;2023-11-21T12:27:33;15.02;;;6.95;;
34549;SDS011;66080;52.078;5.626;2023-11-21T12:30:00;10.80;;;7.05;;
34549;SDS011;66080;52.078;5.626;2023-11-21T12:32:26;9.68;;;7.10;;
34549;SDS011;66080;52.078;5.626;2023-11-21T12:34:52;14.90;;;7.70;;
34549;SDS011;66080;52.078;5.626;2023-11-21T12:37:18;12.27;;;6.95;;
34549;SDS011;66080;52.078;5.626;2023-11-21T12:39:44;12.13;;;6.78;;
34549;SDS011;66080;52.078;5.626;2023-11-21T12:42:09;14.48;;;7.97;;
34549;SDS011;66080;52.078;5.626;2023-11-21T12:44:35;14.75;;;7.70;;
34549;SDS011;66080;52.078;5.626;2023-11-21T12:47:06;16.27;;;9.48;;
34549;SDS011;66080;52.078;5.626;2023-11-21T12:49:32;18.65;;;10.05;;
34549;SDS011;66080;52.078;5.626;2023-11-21T12:51:59;15.98;;;9.27;;
34549;SDS011;66080;52.078;5.626;2023-11-21T12:54:25;14.85;;;9.15;;
34549;SDS011;66080;52.078;5.626;2023-11-21T12:56:51;15.00;;;9.27;;
34549;SDS011;66080;52.078;5.626;2023-11-21T12:59:17;18.13;;;11.55;;
34549;SDS011;66080;52.078;5.626;2023-11-21T13:01:43;18.25;;;10.02;;
34549;SDS011;66080;52.078;5.626;2023-11-21T13:04:09;17.50;;;9.90;;
34549;SDS011;66080;52.078;5.626;2023-11-21T13:06:36;15.15;;;9.15;;
34549;SDS011;66080;52.078;5.626;2023-11-21T13:09:06;15.15;;;9.30;;
34549;SDS011;66080;52.078;5.626;2023-11-21T13:11:35;18.08;;;10.32;;
34549;SDS011;66080;52.078;5.626;2023-11-21T13:14:01;17.40;;;9.68;;
34549;SDS011;66080;52.078;5.626;2023-11-21T13:16:28;19.50;;;10.60;;
34549;SDS011;66080;52.078;5.626;2023-11-21T13:18:55;13.73;;;8.63;;
34549;SDS011;66080;52.078;5.626;2023-11-21T13:21:21;14.55;;;9.35;;
34549;SDS011;66080;52.078;5.626;2023-11-21T13:23:47;16.55;;;9.88;;
34549;SDS011;66080;52.078;5.626;2023-11-21T13:26:16;13.55;;;9.95;;
34549;SDS011;66080;52.078;5.626;2023-11-21T13:28:42;16.05;;;8.18;;
34549;SDS011;66080;52.078;5.626;2023-11-21T13:31:12;16.00;;;11.43;;
34549;SDS011;66080;52.078;5.626;2023-11-21T13:33:57;15.15;;;8.50;;
34549;SDS011;66080;52.078;5.626;2023-11-21T13:36:30;12.57;;;8.32;;
34549;SDS011;66080;52.078;5.626;2023-11-21T13:38:58;13.45;;;8.50;;
34549;SDS011;66080;52.078;5.626;2023-11-21T13:41:29;14.57;;;8.85;;
34549;SDS011;66080;52.078;5.626;2023-11-21T13:43:55;12.73;;;8.30;;
34549;SDS011;66080;52.078;5.626;2023-11-21T13:46:35;18.65;;;9.15;;
34549;SDS011;66080;52.078;5.626;2023-11-21T13:49:02;13.88;;;8.88;;
34549;SDS011;66080;52.078;5.626;2023-11-21T13:51:30;10.63;;;7.50;;
34549;SDS011;66080;52.078;5.626;2023-11-21T13:54:04;15.10;;;9.02;;
34549;SDS011;66080;52.078;5.626;2023-11-21T13:56:35;13.45;;;7.15;;
34549;SDS011;66080;52.078;5.626;2023-11-21T13:59:01;10.30;;;5.93;;
34549;SDS011;66080;52.078;5.626;2023-11-21T14:01:48;7.10;;;5.18;;
34549;SDS011;66080;52.078;5.626;2023-11-21T14:04:21;10.57;;;6.25;;
34549;SDS011;66080;52.078;5.626;2023-11-21T14:07:09;10.48;;;5.82;;
34549;SDS011;66080;52.078;5.626;2023-11-21T14:09:53;8.88;;;6.65;;
34549;SDS011;66080;52.078;5.626;2023-11-21T14:12:19;12.30;;;5.80;;
34549;SDS011;66080;52.078;5.626;2023-11-21T14:14:46;10.80;;;5.72;;
34549;SDS011;66080;52.078;5.626;2023-11-21T14:17:13;10.43;;;6.13;;
34549;SDS011;66080;52.078;5.626;2023-11-21T14:19:39;13.10;;;6.82;;
34549;SDS011;66080;52.078;5.626;2023-11-21T14:22:08;13.52;;;6.25;;
34549;SDS011;66080;52.078;5.626;2023-11-21T14:24:34;12.75;;;8.52;;
34549;SDS011;66080;52.078;5.626;2023-11-21T14:27:01;14.52;;;7.28;;
34549;SDS011;66080;52.078;5.626;2023-11-21T14:29:28;14.27;;;8.07;;
34549;SDS011;66080;52.078;5.626;2023-11-21T14:31:55;20.77;;;10.15;;
34549;SDS011;66080;52.078;5.626;2023-11-21T14:34:23;20.73;;;9.45;;
34549;SDS011;66080;52.078;5.626;2023-11-21T14:36:49;16.42;;;8.82;;
34549;SDS011;66080;52.078;5.626;2023-11-21T14:39:15;19.45;;;10.68;;